Ruffin, North Carolina
Current Conditions -  °F | °C
As of 8:53 AM on Thursday 30 Oct 2014 (Local Time) from KDAN Reporting Station
Clear Clear  
Wind Chill: 53°   Ceiling: Unl
Heat Index: 53°   Visibility: 10mi
Dew Point: 40°   Wind: 7mph
Humidity: 61%   Direction: 340°NNW
Pressure: 30.08"   Gusts: NA
Location:  36.45°N, 79.54°W
Report Text: KDAN 301253Z AUTO 34006KT 10SM CLR 12/04 A3008 RMK AO2 SLP177 T01170044
Loading
Personal Weather Stations






























Interactive Weather Map
Tropical Storm Tracking
New forecast layout! Learn more

10-Day Weather Forecast

Advertisements
Track Severe Weather on mobile